Share

Gabbs, NV (89409)

4:49 PM PDT on April 23, 2014 (GMT -0700)
Fallon Naval Air Station (KNFL) Elev 3934 ft | 39.42 °N, 118.70 °W | Change Station

Current weather conditions updated 53 minutes ago

Overcast
Overcast
60 °F
Feels Like 60 °F
N
6
Wind Variable Wind from Variable
Sunrise 6:04 AM
Sunset 7:36 PM
Moon Waning Crescent

Tomorrow is forecast to be Much Warmer than today.

Pressure 29.92 in
Visibility 10.0 miles
Clouds Few 6000 ft
Overcast 25000 ft
Dew Point 18 °F
Humidity 20%
Rainfall 0.00 in
Snow Depth Not available.
UV 2 out of 16
Pollen 7.80 out of 12
Air Quality Not available.
Flu Activity Sporadic
METAR KNFL 232256Z VRB05KT 10SM FEW060 OVC250 16/M08 A3000 RMK AO2 SLP130 T01561078

More Conditions Fewer Conditions

Pressure 29.92 in
Visibility 10.0 miles
Clouds Few 6000 ft
Overcast 25000 ft
Dew Point 18 °F
Humidity 20%
Rainfall 0.00 in
Snow Depth Not available.
UV 2 out of 16
Pollen 7.80 out of 12
Air Quality Not available.
Flu Activity Sporadic
METAR KNFL 232256Z VRB05KT 10SM FEW060 OVC250 16/M08 A3000 RMK AO2 SLP130 T01561078

More Conditions Fewer Conditions

10-Day Weather Forecast

Almanac

Astronomy

Apr. 23, 2014 Rise Set
Actual Time 6:04 AM PDT 7:36 PM PDT
Civil Twilight 5:35 AM PDT 8:04 PM PDT
Nautical Twilight 5:02 AM PDT 8:38 PM PDT
Astronomical Twilight 4:26 AM PDT 9:14 PM PDT
Moon 2:35 AM PDT 1:53 PM PDT
Length of Visible Light 14h 28m
Length of Day
13h 32m
Tomorrow will be 2m 18s longer.
Waning Crescent, 31% of the Moon is Illuminated
Today
Waning Crescent
Apr 29
New
May 6
First Quarter
May 14
Full
May 21
Last Quarter

Today's Extremes

State Highs State Lows

Community

  • Nestled In
    Nestled In
  • Stunning Sunrise
    Stunning Sunrise
  • spring flowers
    spring flowers
  • Earth Day Spectrum Ove' Blue
    Earth Day Spectrum Ove' Blue
  • BARN B&W
    BARN B&W

WunderPhotos

Upload Photos

1,704,452 photos uploaded!

WunderBlogs® & News

Nearby

Snow Depth

Station Depth Elevation
Big Creek Summit 29 in 8700 ft
Marlette Lake 16 in 8000 ft
Mt. Rose Ski Area 21 in 8850 ft
Diamond Peak 1 in 8000 ft
Corral Canyon 41 in 8500 ft

Coastal Water Temperatures

Place Temperature
No Stations Reporting

Earthquake Activity

City Distance Mag. Time & Date
Carlin, Nevada 159 miles 2.5 10:07 AM PDT
2014-04-17
Minimum magnitude displayed is 2.5.

Nearby Weather Stations

There are no personal weather stations in this area.

What do you think?

We're not finished. Please let us know what you like, what you don't like, and what you are still missing.